Time;durP1;ratioP1;P1;durP2;ratioP2;P2;SDS_P1;SDS_P2;PMS_P1;PMS_P2;Temp;Humidity;BMP_temperature;BMP_pressure;BME280_temperature;BME280_humidity;BME280_pressure;Samples;Min_cycle;Max_cycle;Signal;HPM_P1;HPM_P2
2023/05/29 00:00:13;;;;;;;1999.90;999.90;;;17.20;99.90;;;;;;5031622;28;20200;-73
2023/05/29 00:02:39;;;;;;;1999.90;999.90;;;17.10;99.90;;;;;;5031372;28;20226;-73
2023/05/29 00:05:05;;;;;;;1999.90;999.90;;;17.00;99.90;;;;;;5031720;28;20403;-73
2023/05/29 00:07:34;;;;;;;1999.90;999.90;;;17.00;99.90;;;;;;5031636;28;20417;-73
2023/05/29 00:10:00;;;;;;;1999.90;999.90;;;17.00;99.90;;;;;;5031482;28;20681;-73
2023/05/29 00:12:26;;;;;;;1999.90;999.90;;;17.00;99.90;;;;;;5031226;28;20430;-73
2023/05/29 00:14:51;;;;;;;1999.90;999.90;;;16.90;99.90;;;;;;5031545;28;20633;-73
2023/05/29 00:17:17;;;;;;;1999.90;999.90;;;16.90;99.90;;;;;;5031535;28;20214;-73
2023/05/29 00:19:43;;;;;;;1999.90;999.90;;;16.90;99.90;;;;;;5031514;28;20165;-72
2023/05/29 00:22:09;;;;;;;1999.90;999.90;;;16.90;99.90;;;;;;5031157;28;20169;-74
2023/05/29 00:24:35;;;;;;;1999.90;999.90;;;16.80;99.90;;;;;;5031570;28;20775;-73
2023/05/29 00:27:01;;;;;;;1999.90;999.90;;;16.80;99.90;;;;;;5031630;28;20413;-73
2023/05/29 00:29:27;;;;;;;1999.90;999.90;;;16.70;99.90;;;;;;5031331;28;20196;-72
2023/05/29 00:31:53;;;;;;;1999.90;999.90;;;16.70;99.90;;;;;;5031266;28;20199;-73
2023/05/29 00:34:19;;;;;;;1999.90;999.90;;;16.70;99.90;;;;;;5031552;28;20465;-73
2023/05/29 00:36:46;;;;;;;1999.90;999.90;;;16.60;99.90;;;;;;5031992;28;20407;-72
2023/05/29 00:39:12;;;;;;;1999.90;999.90;;;16.60;99.90;;;;;;5037541;28;20405;-73
2023/05/29 00:41:38;;;;;;;1999.90;999.90;;;16.60;99.90;;;;;;5038578;28;20426;-72
2023/05/29 00:44:03;;;;;;;1999.90;999.90;;;16.60;99.90;;;;;;5037973;28;20464;-72
2023/05/29 00:46:31;;;;;;;1999.90;999.90;;;16.50;99.90;;;;;;5038071;28;20688;-72
2023/05/29 00:48:58;;;;;;;1999.90;999.90;;;16.50;99.90;;;;;;5037552;28;20447;-72
2023/05/29 00:51:25;;;;;;;1999.90;999.90;;;16.50;99.90;;;;;;5037191;28;20461;-72
2023/05/29 00:53:52;;;;;;;1999.90;999.90;;;16.30;99.90;;;;;;5037437;28;20403;-72
2023/05/29 00:56:20;;;;;;;1999.90;999.90;;;16.20;99.90;;;;;;5037528;28;20414;-72
2023/05/29 00:58:51;;;;;;;1999.90;999.90;;;16.20;99.90;;;;;;5037341;28;20424;-72
2023/05/29 01:01:18;;;;;;;1999.90;999.90;;;16.00;99.90;;;;;;5036896;28;20414;-72
2023/05/29 01:03:45;;;;;;;1999.90;999.90;;;15.90;99.90;;;;;;5036956;28;20437;-72
2023/05/29 01:06:11;;;;;;;1999.90;999.90;;;15.90;99.90;;;;;;5036959;28;20465;-72
2023/05/29 01:08:36;;;;;;;1999.90;999.90;;;15.90;99.90;;;;;;5036782;28;20849;-72
2023/05/29 01:11:28;;;;;;;1999.90;999.90;;;15.90;99.90;;;;;;5036769;28;20806;-72
2023/05/29 01:13:56;;;;;;;1999.90;999.90;;;15.80;99.90;;;;;;5036794;28;20183;-73
2023/05/29 01:16:33;;;;;;;1999.90;999.90;;;15.70;99.90;;;;;;5036996;28;20437;-72
2023/05/29 01:19:18;;;;;;;1999.90;999.90;;;15.80;99.90;;;;;;5036748;28;20405;-73
2023/05/29 01:22:14;;;;;;;1999.90;999.90;;;15.70;99.90;;;;;;5036111;28;20525;-72
2023/05/29 01:24:50;;;;;;;1999.90;999.90;;;15.70;99.90;;;;;;5036965;28;20479;-72
2023/05/29 01:27:18;;;;;;;1999.90;999.90;;;15.60;99.90;;;;;;5036719;28;20418;-72
2023/05/29 01:29:46;;;;;;;1999.90;999.90;;;15.60;99.90;;;;;;5036056;28;20457;-72
2023/05/29 01:32:12;;;;;;;1999.90;999.90;;;15.60;99.90;;;;;;5036273;28;20458;-73
2023/05/29 01:34:37;;;;;;;1999.90;999.90;;;15.60;99.90;;;;;;5036519;28;20440;-73
2023/05/29 01:37:03;;;;;;;1999.90;999.90;;;15.60;99.90;;;;;;5036262;28;20181;-72
2023/05/29 01:39:30;;;;;;;1999.90;999.90;;;15.50;99.90;;;;;;5036131;28;20199;-72
2023/05/29 01:41:57;;;;;;;1999.90;999.90;;;15.50;99.90;;;;;;5035602;28;20181;-72
2023/05/29 01:44:23;;;;;;;1999.90;999.90;;;15.40;99.90;;;;;;5036174;28;20464;-72
2023/05/29 01:46:49;;;;;;;1999.90;999.90;;;15.40;99.90;;;;;;5035910;28;20497;-73
2023/05/29 01:49:16;;;;;;;1999.90;999.90;;;15.40;99.90;;;;;;5035279;28;20722;-72
2023/05/29 01:51:42;;;;;;;1999.90;999.90;;;15.30;99.90;;;;;;5035435;28;20429;-73
2023/05/29 01:54:08;;;;;;;1999.90;999.90;;;15.20;99.90;;;;;;5035766;28;20401;-72
2023/05/29 01:56:35;;;;;;;1999.90;999.90;;;15.20;99.90;;;;;;5035888;28;20433;-72
2023/05/29 01:59:03;;;;;;;1999.90;999.90;;;15.20;99.90;;;;;;5036374;28;20171;-72
2023/05/29 02:01:29;;;;;;;1999.90;999.90;;;15.20;99.90;;;;;;5035692;28;20804;-72
2023/05/29 02:03:54;;;;;;;1999.90;999.90;;;15.10;99.90;;;;;;5035928;28;20489;-72
2023/05/29 02:06:20;;;;;;;1999.90;999.90;;;15.00;99.90;;;;;;5036334;28;20438;-72
2023/05/29 02:08:46;;;;;;;1999.90;999.90;;;14.90;99.90;;;;;;5035818;28;20184;-72
2023/05/29 02:11:12;;;;;;;1999.90;999.90;;;14.90;99.90;;;;;;5035253;28;20186;-73
2023/05/29 02:13:38;;;;;;;1999.90;999.90;;;14.80;99.90;;;;;;5035197;28;20253;-72
2023/05/29 02:16:04;;;;;;;1999.90;999.90;;;14.80;99.90;;;;;;5035228;28;20436;-72
2023/05/29 02:18:30;;;;;;;1999.90;999.90;;;14.70;99.90;;;;;;5035215;28;20407;-72
2023/05/29 02:20:56;;;;;;;1999.90;999.90;;;14.60;99.90;;;;;;5034765;28;20511;-72
2023/05/29 02:23:22;;;;;;;1999.90;999.90;;;14.60;99.90;;;;;;5034962;28;20448;-72
2023/05/29 02:25:47;;;;;;;1999.90;999.90;;;14.60;99.90;;;;;;5035745;28;20252;-73
2023/05/29 02:28:13;;;;;;;1999.90;999.90;;;14.50;99.90;;;;;;5034979;28;20174;-73
2023/05/29 02:30:38;;;;;;;1999.90;999.90;;;14.50;99.90;;;;;;5035029;28;20540;-72
2023/05/29 02:33:06;;;;;;;1999.90;999.90;;;14.50;99.90;;;;;;5034852;28;20164;-73
2023/05/29 02:35:31;;;;;;;1999.90;999.90;;;14.40;99.90;;;;;;5034846;28;20535;-71
2023/05/29 02:37:57;;;;;;;1999.90;999.90;;;14.40;99.90;;;;;;5032742;28;20404;-72
2023/05/29 02:40:23;;;;;;;1999.90;999.90;;;14.30;99.90;;;;;;5032621;28;20199;-72
2023/05/29 02:42:50;;;;;;;1999.90;999.90;;;14.30;99.90;;;;;;5032460;28;20176;-72
2023/05/29 02:45:16;;;;;;;1999.90;999.90;;;14.20;99.90;;;;;;5032791;28;20421;-72
2023/05/29 02:47:42;;;;;;;1999.90;999.90;;;14.10;99.90;;;;;;5032573;28;20407;-72
2023/05/29 02:50:08;;;;;;;1999.90;999.90;;;14.10;99.90;;;;;;5032450;28;20457;-72
2023/05/29 02:52:34;;;;;;;1999.90;999.90;;;14.00;99.90;;;;;;5032271;28;20226;-72
2023/05/29 02:55:00;;;;;;;1999.90;999.90;;;14.00;99.90;;;;;;5032456;28;20432;-71
2023/05/29 02:57:26;;;;;;;1999.90;999.90;;;13.90;99.90;;;;;;5032335;28;20466;-72
2023/05/29 02:59:52;;;;;;;1999.90;999.90;;;13.90;99.90;;;;;;5032367;28;20464;-72
2023/05/29 03:02:18;;;;;;;1999.90;999.90;;;13.80;99.90;;;;;;5031651;28;20182;-71
2023/05/29 03:04:44;;;;;;;1999.90;999.90;;;13.90;99.90;;;;;;5032342;28;20754;-72
2023/05/29 03:07:10;;;;;;;1999.90;999.90;;;13.70;99.90;;;;;;5032255;28;20278;-72
2023/05/29 03:09:36;;;;;;;1999.90;999.90;;;13.70;99.90;;;;;;5032144;28;20454;-72
2023/05/29 03:12:02;;;;;;;1999.90;999.90;;;13.70;99.90;;;;;;5031786;28;20619;-71
2023/05/29 03:14:28;;;;;;;1999.90;999.90;;;13.70;99.90;;;;;;5032306;28;20177;-72
2023/05/29 03:16:54;;;;;;;1999.90;999.90;;;13.60;99.90;;;;;;5032209;28;20812;-72
2023/05/29 03:19:20;;;;;;;1999.90;999.90;;;13.60;99.90;;;;;;5032088;28;20169;-72
2023/05/29 03:21:46;;;;;;;1999.90;999.90;;;13.60;99.90;;;;;;5031689;28;20427;-71
2023/05/29 03:24:15;;;;;;;1999.90;999.90;;;13.60;99.90;;;;;;5031984;28;20180;-72
2023/05/29 03:26:40;;;;;;;1999.90;999.90;;;13.50;99.90;;;;;;5031941;28;20473;-71
2023/05/29 03:29:07;;;;;;;1999.90;999.90;;;13.40;99.90;;;;;;5031876;28;20450;-71
2023/05/29 03:31:32;;;;;;;1999.90;999.90;;;13.40;99.90;;;;;;5031537;28;20192;-71
2023/05/29 03:33:59;;;;;;;1999.90;999.90;;;13.30;99.90;;;;;;5031936;28;20410;-71
2023/05/29 03:36:24;;;;;;;1999.90;999.90;;;13.30;99.90;;;;;;5031857;28;20534;-71
2023/05/29 03:38:50;;;;;;;1999.90;999.90;;;13.30;99.90;;;;;;5031834;28;20410;-72
2023/05/29 03:41:15;;;;;;;1999.90;999.90;;;13.20;99.90;;;;;;5031467;28;20214;-71
2023/05/29 03:43:41;;;;;;;1999.90;999.90;;;13.20;99.90;;;;;;5031959;28;20204;-71
2023/05/29 03:46:07;;;;;;;1999.90;999.90;;;13.20;99.90;;;;;;5031909;28;20167;-72
2023/05/29 03:48:32;;;;;;;1999.90;999.90;;;13.20;99.90;;;;;;5032218;28;20672;-72
2023/05/29 03:50:58;;;;;;;1999.90;999.90;;;13.10;99.90;;;;;;5032005;28;20212;-72
2023/05/29 03:53:23;;;;;;;1999.90;999.90;;;13.10;99.90;;;;;;5034258;28;20550;-72
2023/05/29 03:55:49;;;;;;;1999.90;999.90;;;13.10;99.90;;;;;;5034165;28;20183;-72
2023/05/29 03:58:15;;;;;;;1999.90;999.90;;;13.10;99.90;;;;;;5034007;28;20226;-72
2023/05/29 04:00:41;;;;;;;1999.90;999.90;;;13.10;99.90;;;;;;5034448;28;20211;-72
2023/05/29 04:03:08;;;;;;;1999.90;999.90;;;13.10;99.90;;;;;;5033403;28;20415;-72
2023/05/29 04:05:34;;;;;;;1999.90;999.90;;;13.10;99.90;;;;;;5033595;28;20237;-72
2023/05/29 04:08:00;;;;;;;1999.90;999.90;;;13.10;99.90;;;;;;5034134;28;20893;-72
2023/05/29 04:10:26;;;;;;;1999.90;999.90;;;13.00;99.90;;;;;;5033756;28;20208;-72
2023/05/29 04:12:51;;;;;;;1999.90;999.90;;;13.00;99.90;;;;;;5034529;28;20458;-72
2023/05/29 04:15:17;;;;;;;1999.90;999.90;;;13.00;99.90;;;;;;5038088;28;20172;-72
2023/05/29 04:17:43;;;;;;;1999.90;999.90;;;13.00;99.90;;;;;;5037636;28;20176;-72
2023/05/29 04:20:09;;;;;;;1999.90;999.90;;;13.10;99.90;;;;;;5037937;28;20239;-72
2023/05/29 04:22:36;;;;;;;1999.90;999.90;;;13.10;99.90;;;;;;5037518;28;20228;-72
2023/05/29 04:25:03;;;;;;;1999.90;999.90;;;13.10;99.90;;;;;;5038067;28;20820;-72
2023/05/29 04:27:29;;;;;;;1999.90;999.90;;;13.10;99.90;;;;;;5038419;28;20418;-72
2023/05/29 04:29:55;;;;;;;1999.90;999.90;;;13.20;99.90;;;;;;5038049;28;20541;-72
2023/05/29 04:32:21;;;;;;;1999.90;999.90;;;13.20;99.90;;;;;;5037813;28;20438;-72
2023/05/29 04:34:47;;;;;;;1999.90;999.90;;;13.20;99.90;;;;;;5038404;28;20401;-72
2023/05/29 04:37:13;;;;;;;1999.90;999.90;;;13.30;99.90;;;;;;5037790;28;20166;-72
2023/05/29 04:39:39;;;;;;;1999.90;999.90;;;13.40;99.90;;;;;;5037512;28;20424;-72
2023/05/29 04:42:05;;;;;;;1999.90;999.90;;;13.40;99.90;;;;;;5034655;28;20823;-72
2023/05/29 04:44:31;;;;;;;1999.90;999.90;;;13.40;99.90;;;;;;5034812;28;20195;-72
2023/05/29 04:46:57;;;;;;;1999.90;999.90;;;13.40;99.90;;;;;;5034899;28;20410;-72
2023/05/29 04:49:23;;;;;;;1999.90;999.90;;;13.30;99.90;;;;;;5034756;28;20250;-73
2023/05/29 04:51:52;;;;;;;1999.90;999.90;;;13.30;99.90;;;;;;5034404;28;20423;-72
2023/05/29 04:54:19;;;;;;;1999.90;999.90;;;13.40;99.90;;;;;;5034946;28;20252;-72
2023/05/29 04:56:45;;;;;;;1999.90;999.90;;;13.40;99.90;;;;;;5034775;28;20399;-72
2023/05/29 04:59:12;;;;;;;1999.90;999.90;;;13.40;99.90;;;;;;5034583;28;20415;-73
2023/05/29 05:01:37;;;;;;;1999.90;999.90;;;13.30;99.90;;;;;;5034268;28;21055;-72
2023/05/29 05:04:03;;;;;;;1999.90;999.90;;;13.40;99.90;;;;;;5034535;28;20486;-72
2023/05/29 05:06:29;;;;;;;1999.90;999.90;;;13.30;99.90;;;;;;5034448;28;20663;-73
2023/05/29 05:08:55;;;;;;;1999.90;999.90;;;13.40;99.90;;;;;;5034431;28;20215;-72
2023/05/29 05:11:23;;;;;;;1999.90;999.90;;;13.40;99.90;;;;;;5034123;28;20195;-72
2023/05/29 05:13:49;;;;;;;1999.90;999.90;;;13.40;99.90;;;;;;5034306;28;20423;-72
2023/05/29 05:16:16;;;;;;;1999.90;999.90;;;13.40;99.90;;;;;;5034326;28;20417;-72
2023/05/29 05:18:43;;;;;;;1999.90;999.90;;;13.50;99.90;;;;;;5034254;28;20206;-72
2023/05/29 05:21:08;;;;;;;1999.90;999.90;;;13.50;99.90;;;;;;5033891;28;20430;-72
2023/05/29 05:23:34;;;;;;;1999.90;999.90;;;13.50;99.90;;;;;;5033831;28;20769;-72
2023/05/29 05:26:00;;;;;;;1999.90;999.90;;;13.50;99.90;;;;;;5034097;28;20174;-73
2023/05/29 05:28:25;;;;;;;1999.90;999.90;;;13.70;99.90;;;;;;5034047;28;20183;-72
2023/05/29 05:30:51;;;;;;;1999.90;999.90;;;13.70;99.90;;;;;;5033941;28;20249;-73
2023/05/29 05:33:17;;;;;;;1999.90;999.90;;;13.70;99.90;;;;;;5033909;28;20168;-72
2023/05/29 05:35:43;;;;;;;1999.90;999.90;;;13.80;99.90;;;;;;5033939;28;20467;-73
2023/05/29 05:38:09;;;;;;;1999.90;999.90;;;13.80;99.90;;;;;;5033981;28;20171;-72
2023/05/29 05:40:34;;;;;;;1999.90;999.90;;;13.80;99.90;;;;;;5033966;28;20196;-72
2023/05/29 05:43:00;;;;;;;1999.90;999.90;;;13.90;99.90;;;;;;5033590;28;20470;-73
2023/05/29 05:45:26;;;;;;;1999.90;999.90;;;13.90;99.90;;;;;;5033836;28;20460;-72
2023/05/29 05:47:51;;;;;;;1999.90;999.90;;;13.80;99.90;;;;;;5033807;28;20587;-73
2023/05/29 05:50:17;;;;;;;1999.90;999.90;;;13.80;99.90;;;;;;5033526;28;20219;-72
2023/05/29 05:52:42;;;;;;;1999.90;999.90;;;13.80;99.90;;;;;;5033423;28;20179;-72
2023/05/29 05:55:08;;;;;;;1999.90;999.90;;;13.90;99.90;;;;;;5033763;28;20174;-73
2023/05/29 05:57:35;;;;;;;1999.90;999.90;;;13.90;99.90;;;;;;5033518;28;20167;-73
2023/05/29 06:00:05;;;;;;;1999.90;999.90;;;13.90;99.90;;;;;;5033475;28;20186;-72
2023/05/29 06:02:31;;;;;;;1999.90;999.90;;;14.00;99.90;;;;;;5033233;28;20784;-72
2023/05/29 06:04:56;;;;;;;1999.90;999.90;;;14.00;99.90;;;;;;5033396;28;20422;-72
2023/05/29 06:07:22;;;;;;;1999.90;999.90;;;14.00;99.90;;;;;;5033360;28;20647;-72
2023/05/29 06:09:48;;;;;;;1999.90;999.90;;;14.10;99.90;;;;;;5033202;28;20200;-73
2023/05/29 06:12:15;;;;;;;1999.90;999.90;;;14.20;99.90;;;;;;5032945;28;20196;-72
2023/05/29 06:14:41;;;;;;;1999.90;999.90;;;14.20;99.90;;;;;;5034396;28;20447;-72
2023/05/29 06:17:06;;;;;;;1999.90;999.90;;;14.30;99.90;;;;;;5034616;28;20401;-72
2023/05/29 06:19:32;;;;;;;1999.90;999.90;;;14.40;99.90;;;;;;5035489;28;20175;-72
2023/05/29 06:21:57;;;;;;;1999.90;999.90;;;14.30;99.90;;;;;;5035503;28;20547;-72
2023/05/29 06:24:23;;;;;;;1999.90;999.90;;;14.30;99.90;;;;;;5034895;28;20250;-72
2023/05/29 06:26:50;;;;;;;1999.90;999.90;;;14.30;99.90;;;;;;5034495;28;20210;-72
2023/05/29 06:29:15;;;;;;;1999.90;999.90;;;14.40;99.90;;;;;;5034062;28;20195;-72
2023/05/29 06:31:42;;;;;;;1999.90;999.90;;;14.50;99.90;;;;;;5033812;28;20485;-72
2023/05/29 06:34:07;;;;;;;1999.90;999.90;;;14.60;99.90;;;;;;5035669;28;20403;-72
2023/05/29 06:36:34;;;;;;;1999.90;999.90;;;14.60;99.90;;;;;;5034430;28;20172;-72
2023/05/29 06:39:00;;;;;;;1999.90;999.90;;;14.70;99.90;;;;;;5035865;28;20177;-72
2023/05/29 06:41:25;;;;;;;1999.90;999.90;;;14.70;99.90;;;;;;5035917;28;20423;-72
2023/05/29 06:43:51;;;;;;;1999.90;999.90;;;14.60;99.90;;;;;;5036283;28;20167;-72
2023/05/29 06:46:17;;;;;;;1999.90;999.90;;;14.50;99.90;;;;;;5035920;28;20204;-72
2023/05/29 06:48:43;;;;;;;1999.90;999.90;;;14.50;99.90;;;;;;5036165;28;20861;-72
2023/05/29 06:51:11;;;;;;;1999.90;999.90;;;14.60;99.90;;;;;;5035080;28;20191;-72
2023/05/29 06:53:37;;;;;;;1999.90;999.90;;;14.80;99.90;;;;;;5034980;28;20403;-72
2023/05/29 06:56:03;;;;;;;1999.90;999.90;;;14.90;99.90;;;;;;5035530;28;20405;-72
2023/05/29 06:58:30;;;;;;;1999.90;999.90;;;15.00;99.90;;;;;;5032654;28;20490;-71
2023/05/29 07:00:56;;;;;;;1999.90;999.90;;;15.00;99.90;;;;;;5032012;28;20833;-71
2023/05/29 07:03:21;;;;;;;1999.90;999.90;;;15.00;99.90;;;;;;5032271;28;20402;-71
2023/05/29 07:05:47;;;;;;;1999.90;999.90;;;15.10;99.90;;;;;;5032321;28;20170;-72
2023/05/29 07:08:13;;;;;;;1999.90;999.90;;;15.20;99.90;;;;;;5032219;28;20710;-71
2023/05/29 07:10:38;;;;;;;1999.90;999.90;;;15.20;99.90;;;;;;5032062;28;20212;-71
2023/05/29 07:13:06;;;;;;;1999.90;999.90;;;15.00;99.90;;;;;;5031848;28;20455;-71
2023/05/29 07:15:31;;;;;;;1999.90;999.90;;;15.10;99.90;;;;;;5032198;28;20160;-71
2023/05/29 07:17:57;;;;;;;1999.90;999.90;;;15.10;99.90;;;;;;5032086;28;20406;-71
2023/05/29 07:20:23;;;;;;;1999.90;999.90;;;15.20;99.90;;;;;;5032081;28;20725;-72
2023/05/29 07:22:48;;;;;;;1999.90;999.90;;;15.40;99.90;;;;;;5031734;28;20171;-72
2023/05/29 07:25:14;;;;;;;1999.90;999.90;;;15.60;99.90;;;;;;5032114;28;20255;-71
2023/05/29 07:27:40;;;;;;;1999.90;999.90;;;15.80;99.90;;;;;;5032041;28;20184;-72
2023/05/29 07:30:06;;;;;;;1999.90;999.90;;;15.80;99.90;;;;;;5031874;28;20731;-71
2023/05/29 07:32:32;;;;;;;1999.90;999.90;;;15.90;99.90;;;;;;5031731;28;20173;-72
2023/05/29 07:34:58;;;;;;;1999.90;999.90;;;16.00;99.90;;;;;;5031947;28;21164;-72
2023/05/29 07:37:23;;;;;;;1999.90;999.90;;;16.10;99.90;;;;;;5031967;28;20174;-72
2023/05/29 07:39:49;;;;;;;1999.90;999.90;;;16.30;99.90;;;;;;5031790;28;20178;-72
2023/05/29 07:42:14;;;;;;;1999.90;999.90;;;16.30;99.90;;;;;;5031615;28;20176;-71
2023/05/29 07:44:43;;;;;;;1999.90;999.90;;;16.10;99.90;;;;;;5031878;28;20222;-72
2023/05/29 07:47:09;;;;;;;1999.90;999.90;;;16.10;99.90;;;;;;5032565;28;20176;-71
2023/05/29 07:49:35;;;;;;;1999.90;999.90;;;16.10;99.90;;;;;;5035846;28;20461;-72
2023/05/29 07:52:04;;;;;;;1999.90;999.90;;;16.30;99.90;;;;;;5048115;28;20508;-72
2023/05/29 07:54:33;;;;;;;1999.90;999.90;;;16.30;99.90;;;;;;5055771;28;20429;-72
2023/05/29 07:57:09;;;;;;;1999.90;999.90;;;16.40;99.90;;;;;;5055777;28;20810;-71
2023/05/29 07:59:36;;;;;;;1999.90;999.90;;;16.50;99.90;;;;;;5055556;28;20420;-72
2023/05/29 08:02:03;;;;;;;1999.90;999.90;;;16.40;99.90;;;;;;5055583;28;20463;-72
2023/05/29 08:04:28;;;;;;;1999.90;999.90;;;16.60;99.90;;;;;;5055637;28;20412;-72
2023/05/29 08:06:54;;;;;;;1999.90;999.90;;;16.70;99.90;;;;;;5055552;28;20765;-72
2023/05/29 08:09:20;;;;;;;1999.90;999.90;;;16.80;99.90;;;;;;5055430;28;20196;-72
2023/05/29 08:11:47;;;;;;;1999.90;999.90;;;16.80;99.90;;;;;;5054984;28;20429;-72
2023/05/29 08:14:15;;;;;;;1999.90;999.90;;;17.00;99.90;;;;;;5055478;28;20513;-72
2023/05/29 08:16:41;;;;;;;1999.90;999.90;;;16.90;99.90;;;;;;5055393;28;20912;-71
2023/05/29 08:19:07;;;;;;;1999.90;999.90;;;17.00;99.90;;;;;;5055392;28;20457;-71
2023/05/29 08:21:33;;;;;;;1999.90;999.90;;;16.80;99.90;;;;;;5054932;28;20425;-71
2023/05/29 08:23:59;;;;;;;1999.90;999.90;;;16.90;99.90;;;;;;5055271;28;20311;-71
2023/05/29 08:26:25;;;;;;;1999.90;999.90;;;16.90;99.90;;;;;;5055129;28;20207;-72
2023/05/29 08:28:51;;;;;;;1999.90;999.90;;;17.10;99.90;;;;;;5055025;28;20452;-71
2023/05/29 08:31:17;;;;;;;1999.90;999.90;;;17.20;99.90;;;;;;5054716;28;20426;-72
2023/05/29 08:33:42;;;;;;;1999.90;999.90;;;17.30;99.90;;;;;;5055084;28;20282;-71
2023/05/29 08:36:08;;;;;;;1999.90;999.90;;;17.20;99.90;;;;;;5055095;28;20647;-71
2023/05/29 08:38:35;;;;;;;1999.90;999.90;;;17.10;99.90;;;;;;5054898;28;20161;-72
2023/05/29 08:41:00;;;;;;;1999.90;999.90;;;17.20;99.90;;;;;;5054480;28;20419;-71
2023/05/29 08:43:30;;;;;;;1999.90;999.90;;;17.30;99.90;;;;;;5055160;28;20502;-71
2023/05/29 08:46:00;;;;;;;1999.90;999.90;;;17.40;99.90;;;;;;5054815;28;20530;-72
2023/05/29 08:48:27;;;;;;;1999.90;999.90;;;17.60;99.90;;;;;;5054703;28;20966;-72
2023/05/29 08:50:54;;;;;;;1999.90;999.90;;;17.70;99.90;;;;;;5054397;28;20481;-71
2023/05/29 08:53:21;;;;;;;1999.90;999.90;;;17.70;99.90;;;;;;5054700;28;20418;-72
2023/05/29 08:55:48;;;;;;;1999.90;999.90;;;17.70;99.90;;;;;;5054570;28;20421;-72
2023/05/29 08:58:17;;;;;;;1999.90;999.90;;;17.80;99.90;;;;;;5054223;28;20456;-72
2023/05/29 09:00:45;;;;;;;1999.90;999.90;;;17.90;99.90;;;;;;5053902;28;20799;-72
2023/05/29 09:03:11;;;;;;;1999.90;999.90;;;17.90;99.90;;;;;;5054268;28;20509;-72
2023/05/29 09:05:40;;;;;;;1999.90;999.90;;;18.20;99.90;;;;;;5054506;28;20501;-72
2023/05/29 09:08:07;;;;;;;1999.90;999.90;;;18.20;99.90;;;;;;5054228;28;20206;-72
2023/05/29 09:10:32;;;;;;;1999.90;999.90;;;18.20;99.90;;;;;;5054264;28;20459;-72
2023/05/29 09:12:59;;;;;;;1999.90;999.90;;;18.20;99.90;;;;;;5054020;28;20429;-72
2023/05/29 09:15:24;;;;;;;1999.90;999.90;;;18.10;99.90;;;;;;5052816;28;20171;-72
2023/05/29 09:17:52;;;;;;;1999.90;999.90;;;18.40;99.90;;;;;;5031187;28;20422;-72
2023/05/29 09:20:18;;;;;;;1999.90;999.90;;;18.50;99.90;;;;;;5036345;28;20369;-72
2023/05/29 09:23:08;;;;;;;1999.90;999.90;;;18.60;99.90;;;;;;5048005;28;20849;-71
2023/05/29 09:25:39;;;;;;;1999.90;999.90;;;18.70;99.90;;;;;;5049576;28;20507;-71
2023/05/29 09:28:07;;;;;;;1999.90;999.90;;;18.80;99.90;;;;;;5049255;28;20423;-70
2023/05/29 09:30:41;;;;;;;1999.90;999.90;;;18.50;99.90;;;;;;5037712;28;20516;-71
2023/05/29 09:33:09;;;;;;;1999.90;999.90;;;18.50;99.90;;;;;;5032205;28;20406;-71
2023/05/29 09:35:46;;;;;;;1999.90;999.90;;;18.20;99.90;;;;;;5033600;28;20753;-72
2023/05/29 09:38:21;;;;;;;1999.90;999.90;;;18.20;99.90;;;;;;5024479;28;20399;-72
2023/05/29 09:40:47;;;;;;;1999.90;999.90;;;18.10;99.90;;;;;;5032678;28;20433;-72
2023/05/29 09:43:16;;;;;;;1999.90;999.90;;;18.50;99.90;;;;;;5033077;28;20496;-71
2023/05/29 09:45:47;;;;;;;1999.90;999.90;;;18.90;99.90;;;;;;5032487;28;20259;-70
2023/05/29 09:48:15;;;;;;;1999.90;999.90;;;19.20;99.90;;;;;;5032812;28;20775;-68
2023/05/29 09:50:44;;;;;;;1999.90;999.90;;;19.20;99.90;;;;;;5032990;28;21045;-68
2023/05/29 09:53:19;;;;;;;1999.90;999.90;;;19.10;99.90;;;;;;5031600;28;20465;-68
2023/05/29 09:55:48;;;;;;;1999.90;999.90;;;19.00;99.90;;;;;;5033086;28;20399;-70
2023/05/29 09:58:18;;;;;;;1999.90;999.90;;;19.00;99.90;;;;;;5032530;28;20446;-70
2023/05/29 10:00:44;;;;;;;1999.90;999.90;;;19.00;99.90;;;;;;5032389;28;20430;-70
2023/05/29 10:03:14;;;;;;;1999.90;999.90;;;18.90;99.90;;;;;;5032315;28;20411;-71
2023/05/29 10:05:40;;;;;;;1999.90;999.90;;;19.10;99.90;;;;;;5032436;28;20408;-71
2023/05/29 10:08:11;;;;;;;1999.90;999.90;;;19.20;99.90;;;;;;5031891;28;20469;-71
2023/05/29 10:10:40;;;;;;;1999.90;999.90;;;19.60;99.90;;;;;;5032040;28;20469;-71
2023/05/29 10:13:10;;;;;;;1999.90;999.90;;;19.70;99.90;;;;;;5031943;28;20889;-72
2023/05/29 10:15:36;;;;;;;1999.90;999.90;;;19.90;99.90;;;;;;5032233;28;20383;-72
2023/05/29 10:18:04;;;;;;;1999.90;999.90;;;20.20;99.90;;;;;;5032721;28;20400;-72
2023/05/29 10:20:33;;;;;;;1999.90;999.90;;;20.50;99.90;;;;;;5032551;28;20470;-72
2023/05/29 10:23:02;;;;;;;1999.90;999.90;;;20.60;99.90;;;;;;5031728;28;20405;-72
2023/05/29 10:25:30;;;;;;;1999.90;999.90;;;20.40;99.90;;;;;;5031457;28;20416;-72
2023/05/29 10:27:57;;;;;;;1999.90;999.90;;;20.70;99.90;;;;;;5032483;28;20406;-72
2023/05/29 10:30:41;;;;;;;1999.90;999.90;;;20.90;99.90;;;;;;5031849;28;21016;-70
2023/05/29 10:33:44;;;;;;;1999.90;999.90;;;21.00;99.90;;;;;;5031674;28;20415;-70
2023/05/29 10:36:14;;;;;;;1999.90;999.90;;;21.00;99.90;;;;;;5032702;28;21245;-70
2023/05/29 10:38:47;;;;;;;1999.90;999.90;;;20.50;99.90;;;;;;5031665;28;20409;-70
2023/05/29 10:41:27;;;;;;;1999.90;999.90;;;20.50;99.90;;;;;;5024209;28;20780;-72
2023/05/29 10:44:03;;;;;;;1999.90;999.90;;;20.70;99.90;;;;;;5032105;28;20836;-72
2023/05/29 10:46:44;;;;;;;1999.90;999.90;;;21.10;99.90;;;;;;5032003;28;20410;-71
2023/05/29 10:49:20;;;;;;;1999.90;999.90;;;21.20;99.90;;;;;;5031919;28;20437;-72
2023/05/29 10:51:46;;;;;;;1999.90;999.90;;;21.40;99.90;;;;;;5031070;28;20404;-72
2023/05/29 10:54:13;;;;;;;1999.90;999.90;;;21.60;98.40;;;;;;5031603;28;20414;-72
2023/05/29 10:56:40;;;;;;;1999.90;999.90;;;21.40;96.50;;;;;;5032038;28;20438;-72
2023/05/29 10:59:07;;;;;;;1999.90;999.90;;;21.00;99.40;;;;;;5031502;28;20947;-72
2023/05/29 11:01:33;;;;;;;1999.90;999.90;;;21.30;99.10;;;;;;5032035;28;20788;-72
2023/05/29 11:04:17;;;;;;;1999.90;999.90;;;21.60;99.30;;;;;;5031896;28;20410;-72
2023/05/29 11:06:43;;;;;;;1999.90;999.90;;;22.10;98.00;;;;;;5031431;28;21023;-72
2023/05/29 11:09:28;;;;;;;1999.90;999.90;;;22.30;95.20;;;;;;5031605;28;20452;-72
2023/05/29 11:12:33;;;;;;;1999.90;999.90;;;22.30;92.40;;;;;;5031277;28;20423;-72
2023/05/29 11:15:14;;;;;;;1999.90;999.90;;;21.90;92.80;;;;;;5031046;28;20849;-72
2023/05/29 11:17:39;;;;;;;1999.90;999.90;;;21.70;93.90;;;;;;5031767;28;20431;-72
2023/05/29 11:20:28;;;;;;;1999.90;999.90;;;22.10;95.90;;;;;;5031491;28;20404;-72
2023/05/29 11:23:07;;;;;;;1999.90;999.90;;;22.40;93.20;;;;;;5027559;28;20192;-72
2023/05/29 11:25:35;;;;;;;1999.90;999.90;;;22.30;90.90;;;;;;5031419;28;20371;-72
2023/05/29 11:28:01;;;;;;;1999.90;999.90;;;22.30;91.00;;;;;;5031591;28;21258;-72
2023/05/29 11:30:26;;;;;;;1999.90;999.90;;;22.50;91.60;;;;;;5030974;28;20440;-72
2023/05/29 11:32:53;;;;;;;1999.90;999.90;;;22.60;88.20;;;;;;5030881;28;20271;-72
2023/05/29 11:35:22;;;;;;;1999.90;999.90;;;22.80;91.70;;;;;;5031184;28;20257;-72
2023/05/29 11:37:48;;;;;;;1999.90;999.90;;;23.30;90.40;;;;;;5031028;28;20406;-72
2023/05/29 11:40:15;;;;;;;1999.90;999.90;;;23.40;81.90;;;;;;5031262;28;20438;-72
2023/05/29 11:42:50;;;;;;;1999.90;999.90;;;22.90;77.00;;;;;;5031135;28;20422;-72
2023/05/29 11:45:21;;;;;;;1999.90;999.90;;;22.90;86.60;;;;;;5031248;28;20905;-72
2023/05/29 11:48:01;;;;;;;1999.90;999.90;;;23.20;80.20;;;;;;5031460;28;20792;-72
2023/05/29 11:50:31;;;;;;;1999.90;999.90;;;23.50;79.40;;;;;;5029906;28;20995;-70
2023/05/29 11:52:58;;;;;;;1999.90;999.90;;;23.80;79.50;;;;;;5030022;28;20403;-71
2023/05/29 11:55:25;;;;;;;1999.90;999.90;;;24.00;71.50;;;;;;5031054;28;20753;-70
2023/05/29 11:58:01;;;;;;;1999.90;999.90;;;24.10;65.30;;;;;;5031238;28;20889;-70
2023/05/29 12:00:35;;;;;;;1999.90;999.90;;;23.90;63.30;;;;;;5030797;28;20520;-70